Time;durP1;ratioP1;P1;durP2;ratioP2;P2;SDS_P1;SDS_P2;PMS_P1;PMS_P2;Temp;Humidity;BMP_temperature;BMP_pressure;BME280_temperature;BME280_humidity;BME280_pressure;Samples;Min_cycle;Max_cycle;Signal;HPM_P1;HPM_P2
2023/08/26 00:02:02;;;;;;;;;;;;;;;24.97;68.66;96953.95;621526;228;64897;-67
2023/08/26 00:04:30;;;;;;;;;;;;;;;24.96;68.63;96958.53;620082;228;64809;-67
2023/08/26 00:06:59;;;;;;;;;;;;;;;24.97;68.62;96945.88;620302;228;64783;-67
2023/08/26 00:09:27;;;;;;;;;;;;;;;24.96;68.57;96950.47;621476;228;64899;-67
2023/08/26 00:11:55;;;;;;;;;;;;;;;24.97;68.59;96943.20;621546;228;67125;-67
2023/08/26 00:14:22;;;;;;;;;;;;;;;24.96;68.68;96942.41;621517;228;66918;-67
2023/08/26 00:16:51;;;;;;;;;;;;;;;24.96;68.73;96936.20;621530;228;62788;-67
2023/08/26 00:19:20;;;;;;;;;;;;;;;24.95;68.62;96938.10;621400;228;67020;-67
2023/08/26 00:21:47;;;;;;;;;;;;;;;24.96;69.25;96936.20;621547;228;64780;-67
2023/08/26 00:24:15;;;;;;;;;;;;;;;24.96;68.62;96925.45;620726;227;64883;-67
2023/08/26 00:26:42;;;;;;;;;;;;;;;24.96;68.62;96934.34;622622;227;67204;-67
2023/08/26 00:29:10;;;;;;;;;;;;;;;24.95;68.58;96930.04;621462;228;66963;-67
2023/08/26 00:31:38;;;;;;;;;;;;;;;24.96;68.62;96936.20;620200;228;62721;-67
2023/08/26 00:34:06;;;;;;;;;;;;;;;24.95;68.65;96921.97;620206;228;67214;-67
2023/08/26 00:36:34;;;;;;;;;;;;;;;24.96;68.63;96930.83;619827;228;65291;-68
2023/08/26 00:39:02;;;;;;;;;;;;;;;24.95;68.62;96935.41;621528;228;65031;-67
2023/08/26 00:41:30;;;;;;;;;;;;;;;24.95;68.63;96926.56;621275;228;64815;-67
2023/08/26 00:43:57;;;;;;;;;;;;;;;24.94;68.62;96927.66;619641;228;67693;-67
2023/08/26 00:46:25;;;;;;;;;;;;;;;24.94;68.61;96923.08;622590;227;65004;-68
2023/08/26 00:48:53;;;;;;;;;;;;;;;24.94;68.61;96920.39;621528;228;64981;-67
2023/08/26 00:51:21;;;;;;;;;;;;;;;24.94;68.59;96920.39;621945;227;67042;-67
2023/08/26 00:53:49;;;;;;;;;;;;;;;24.95;68.73;96923.88;621728;228;64979;-68
2023/08/26 00:56:17;;;;;;;;;;;;;;;24.95;68.58;96918.49;619733;228;67048;-67
2023/08/26 00:58:44;;;;;;;;;;;;;;;24.95;68.58;96924.66;622152;227;66808;-67
2023/08/26 01:01:14;;;;;;;;;;;;;;;24.94;68.59;96920.39;621285;227;42281;-67
2023/08/26 01:03:41;;;;;;;;;;;;;;;24.94;69.25;96920.39;622968;227;67045;-68
2023/08/26 01:06:09;;;;;;;;;;;;;;;24.95;70.47;96919.28;621228;228;66932;-68
2023/08/26 01:08:37;;;;;;;;;;;;;;;24.94;69.67;96925.77;620737;227;62893;-68
2023/08/26 01:11:09;;;;;;;;;;;;;;;24.94;69.21;96919.60;621216;227;67112;-68
2023/08/26 01:13:38;;;;;;;;;;;;;;;24.94;69.29;96920.39;621838;227;64461;-69
2023/08/26 01:16:07;;;;;;;;;;;;;;;24.95;70.02;96923.88;614169;226;65025;-68
2023/08/26 01:18:35;;;;;;;;;;;;;;;24.95;69.54;96921.18;621771;226;66820;-69
2023/08/26 01:21:03;;;;;;;;;;;;;;;24.92;69.27;96919.89;621553;228;66992;-69
2023/08/26 01:23:40;;;;;;;;;;;;;;;24.95;69.43;96918.49;620666;228;65326;-68
2023/08/26 01:26:08;;;;;;;;;;;;;;;24.94;69.57;96917.70;621243;228;64867;-68
2023/08/26 01:28:36;;;;;;;;;;;;;;;24.93;69.95;96915.30;620599;228;67423;-68
2023/08/26 01:31:11;;;;;;;;;;;;;;;24.92;69.01;96917.20;621166;228;64994;-68
2023/08/26 01:33:43;;;;;;;;;;;;;;;24.92;68.85;96909.13;621539;228;67482;-68
2023/08/26 01:36:12;;;;;;;;;;;;;;;24.92;68.69;96914.51;621558;227;67061;-68
2023/08/26 01:38:40;;;;;;;;;;;;;;;24.94;70.85;96914.22;617461;228;67212;-68
2023/08/26 01:41:09;;;;;;;;;;;;;;;24.93;71.11;96910.72;621578;227;67258;-68
2023/08/26 01:43:37;;;;;;;;;;;;;;;24.92;71.26;96914.51;621255;228;67465;-68
2023/08/26 01:46:05;;;;;;;;;;;;;;;24.92;71.42;96914.51;619699;228;64986;-68
2023/08/26 01:48:32;;;;;;;;;;;;;;;24.91;70.18;96904.86;620696;228;65625;-68
2023/08/26 01:51:00;;;;;;;;;;;;;;;24.91;69.53;96912.93;621565;228;64251;-68
2023/08/26 01:53:27;;;;;;;;;;;;;;;24.91;69.42;96912.11;621575;228;65046;-68
2023/08/26 01:55:55;;;;;;;;;;;;;;;24.91;69.47;96910.23;621525;227;67243;-68
2023/08/26 01:58:22;;;;;;;;;;;;;;;24.91;69.19;96904.86;620488;228;67233;-68
2023/08/26 02:00:50;;;;;;;;;;;;;;;24.91;71.01;96907.55;620595;228;63667;-68
2023/08/26 02:03:18;;;;;;;;;;;;;;;24.91;70.02;96909.42;620476;228;67774;-68
2023/08/26 02:05:46;;;;;;;;;;;;;;;24.91;69.68;96906.73;621592;228;64737;-68
2023/08/26 02:08:14;;;;;;;;;;;;;;;24.91;69.31;96910.23;621842;227;65658;-68
2023/08/26 02:10:41;;;;;;;;;;;;;;;24.92;70.03;96909.13;621760;228;66135;-68
2023/08/26 02:13:09;;;;;;;;;;;;;;;24.91;69.41;96909.42;619854;228;67306;-68
2023/08/26 02:15:37;;;;;;;;;;;;;;;24.90;69.86;96897.88;621566;228;62895;-68
2023/08/26 02:18:05;;;;;;;;;;;;;;;24.91;69.90;96904.05;620762;228;66902;-68
2023/08/26 02:20:33;;;;;;;;;;;;;;;24.91;71.25;96907.55;620524;228;66938;-68
2023/08/26 02:23:02;;;;;;;;;;;;;;;24.90;70.58;96905.94;620347;228;62763;-68
2023/08/26 02:25:30;;;;;;;;;;;;;;;24.90;69.99;96894.39;621492;228;67990;-68
2023/08/26 02:27:57;;;;;;;;;;;;;;;24.90;69.47;96894.39;621558;228;65078;-69
2023/08/26 02:30:25;;;;;;;;;;;;;;;24.90;70.10;96895.19;621467;228;65228;-68
2023/08/26 02:32:52;;;;;;;;;;;;;;;24.90;70.33;96895.19;621589;228;67925;-68
2023/08/26 02:35:20;;;;;;;;;;;;;;;24.90;69.45;96894.39;620567;228;66848;-68
2023/08/26 02:37:47;;;;;;;;;;;;;;;24.88;69.54;96897.40;620859;228;66107;-68
2023/08/26 02:40:15;;;;;;;;;;;;;;;24.90;71.24;96911.31;620879;228;65053;-68
2023/08/26 02:42:42;;;;;;;;;;;;;;;24.89;71.05;96898.98;620870;228;64840;-68
2023/08/26 02:45:10;;;;;;;;;;;;;;;24.89;71.58;96896.30;621500;228;65084;-68
2023/08/26 02:47:38;;;;;;;;;;;;;;;24.89;71.83;96901.67;621514;228;65036;-66
2023/08/26 02:50:06;;;;;;;;;;;;;;;24.89;71.47;96907.05;621533;228;64452;-67
2023/08/26 02:52:34;;;;;;;;;;;;;;;24.89;71.63;96904.36;621497;228;65705;-67
2023/08/26 02:55:02;;;;;;;;;;;;;;;24.89;70.39;96906.26;621548;228;67343;-66
2023/08/26 02:57:30;;;;;;;;;;;;;;;24.88;70.91;96907.33;621521;228;65834;-66
2023/08/26 02:59:57;;;;;;;;;;;;;;;24.89;71.44;96904.36;621519;228;63025;-66
2023/08/26 03:02:25;;;;;;;;;;;;;;;24.88;71.41;96902.78;620445;228;67351;-67
2023/08/26 03:04:52;;;;;;;;;;;;;;;24.88;71.38;96905.47;619559;228;67765;-66
2023/08/26 03:07:20;;;;;;;;;;;;;;;24.88;71.24;96902.78;620631;228;65033;-67
2023/08/26 03:09:47;;;;;;;;;;;;;;;24.88;71.47;96905.47;620904;228;64523;-66
2023/08/26 03:12:16;;;;;;;;;;;;;;;24.88;71.25;96901.95;621457;228;67987;-67
2023/08/26 03:14:43;;;;;;;;;;;;;;;24.87;71.48;96906.54;621510;228;62653;-67
2023/08/26 03:17:11;;;;;;;;;;;;;;;24.87;71.01;96906.54;621492;228;67337;-66
2023/08/26 03:19:40;;;;;;;;;;;;;;;24.86;70.86;96904.95;614711;229;68355;-66
2023/08/26 03:22:08;;;;;;;;;;;;;;;24.88;71.16;96913.53;619541;228;65247;-66
2023/08/26 03:24:36;;;;;;;;;;;;;;;24.87;71.05;96900.38;620707;228;65737;-67
2023/08/26 03:27:05;;;;;;;;;;;;;;;24.87;70.53;96903.06;619916;228;67705;-66
2023/08/26 03:29:32;;;;;;;;;;;;;;;24.88;72.78;96905.47;621521;228;65149;-66
2023/08/26 03:32:00;;;;;;;;;;;;;;;24.88;71.92;96908.16;620296;228;66772;-66
2023/08/26 03:34:29;;;;;;;;;;;;;;;24.87;71.90;96913.81;613682;229;67092;-66
2023/08/26 03:36:56;;;;;;;;;;;;;;;24.86;71.82;96923.77;619337;228;65120;-66
2023/08/26 03:39:24;;;;;;;;;;;;;;;24.86;71.36;96922.98;621322;228;67954;-66
2023/08/26 03:41:52;;;;;;;;;;;;;;;24.86;71.98;96914.92;620363;228;66952;-66
2023/08/26 03:44:19;;;;;;;;;;;;;;;24.86;72.55;96918.40;621485;228;65139;-66
2023/08/26 03:46:48;;;;;;;;;;;;;;;24.86;71.79;96918.40;621506;228;67649;-67
2023/08/26 03:49:15;;;;;;;;;;;;;;;24.85;71.92;96916.78;621501;228;67122;-66
2023/08/26 03:51:43;;;;;;;;;;;;;;;24.85;71.65;96916.78;621523;228;64875;-66
2023/08/26 03:54:10;;;;;;;;;;;;;;;24.85;71.56;96922.16;621544;228;67207;-67
2023/08/26 03:56:38;;;;;;;;;;;;;;;24.86;72.27;96920.30;621989;227;64687;-67
2023/08/26 03:59:06;;;;;;;;;;;;;;;24.84;70.79;96917.89;620642;228;62703;-66
2023/08/26 04:01:35;;;;;;;;;;;;;;;24.85;71.39;96914.09;620607;228;65044;-67
2023/08/26 04:04:04;;;;;;;;;;;;;;;24.84;71.33;96917.89;622231;227;64572;-66
2023/08/26 04:06:33;;;;;;;;;;;;;;;24.84;70.68;96920.58;619838;228;65119;-66
2023/08/26 04:09:02;;;;;;;;;;;;;;;24.85;71.75;96929.44;620234;228;67237;-66
2023/08/26 04:11:30;;;;;;;;;;;;;;;24.85;71.55;96934.81;621424;228;67479;-66
2023/08/26 04:13:58;;;;;;;;;;;;;;;24.85;70.92;96940.19;620872;228;62622;-66
2023/08/26 04:16:26;;;;;;;;;;;;;;;24.84;71.68;96939.39;620597;228;67430;-66
2023/08/26 04:18:54;;;;;;;;;;;;;;;24.85;72.18;96934.81;621503;227;65612;-66
2023/08/26 04:21:21;;;;;;;;;;;;;;;24.85;72.16;96934.81;621584;227;63024;-66
2023/08/26 04:23:49;;;;;;;;;;;;;;;24.85;71.93;96934.81;621749;228;67314;-66
2023/08/26 04:26:16;;;;;;;;;;;;;;;24.84;71.93;96944.77;619771;227;66085;-66
2023/08/26 04:28:44;;;;;;;;;;;;;;;24.84;70.93;96946.66;621148;228;63007;-66
2023/08/26 04:31:12;;;;;;;;;;;;;;;24.84;72.23;96941.30;620254;228;68016;-66
2023/08/26 04:33:40;;;;;;;;;;;;;;;24.83;71.43;96937.81;619789;228;64842;-66
2023/08/26 04:36:08;;;;;;;;;;;;;;;24.83;70.94;96942.37;619482;228;65901;-66
2023/08/26 04:38:36;;;;;;;;;;;;;;;24.84;72.47;96942.08;620686;228;64687;-66
2023/08/26 04:41:03;;;;;;;;;;;;;;;24.83;71.85;96945.88;621577;228;64932;-67
2023/08/26 04:43:31;;;;;;;;;;;;;;;24.83;71.72;96940.50;619845;228;65147;-66
2023/08/26 04:45:59;;;;;;;;;;;;;;;24.83;71.57;96942.37;620791;228;65400;-67
2023/08/26 04:48:33;;;;;;;;;;;;;;;24.84;72.29;96947.46;619931;227;67272;-66
2023/08/26 04:50:57;;;;;;;;;;;;;;;24.83;71.64;96945.88;621550;227;65327;-67
2023/08/26 04:53:24;;;;;;;;;;;;;;;24.84;72.17;96954.73;620514;228;65255;-67
2023/08/26 04:55:52;;;;;;;;;;;;;;;24.84;71.93;96957.42;621492;228;65636;-67
2023/08/26 04:58:21;;;;;;;;;;;;;;;24.84;72.41;96957.42;619825;228;65312;-67
2023/08/26 05:00:48;;;;;;;;;;;;;;;24.83;72.14;96953.12;620400;228;67234;-67
2023/08/26 05:03:16;;;;;;;;;;;;;;;24.83;72.46;96953.94;621218;228;64658;-67
2023/08/26 05:05:43;;;;;;;;;;;;;;;24.83;72.94;96953.94;621594;228;63779;-67
2023/08/26 05:08:12;;;;;;;;;;;;;;;24.82;72.00;96957.70;620170;228;67773;-67
2023/08/26 05:10:42;;;;;;;;;;;;;;;24.82;72.25;96952.33;619537;228;67365;-67
2023/08/26 05:13:10;;;;;;;;;;;;;;;24.83;73.21;96945.88;622499;227;62659;-67
2023/08/26 05:15:37;;;;;;;;;;;;;;;24.82;72.59;96944.27;621501;228;67457;-67
2023/08/26 05:18:05;;;;;;;;;;;;;;;24.82;72.34;96944.27;620816;228;66799;-67
2023/08/26 05:20:33;;;;;;;;;;;;;;;24.82;72.87;96946.95;620684;228;65006;-67
2023/08/26 05:23:00;;;;;;;;;;;;;;;24.81;72.69;96938.09;621543;228;64656;-67
2023/08/26 05:25:28;;;;;;;;;;;;;;;24.81;72.75;96942.69;621488;228;67167;-67
2023/08/26 05:27:58;;;;;;;;;;;;;;;24.81;72.45;96940.78;621529;228;63016;-67
2023/08/26 05:30:26;;;;;;;;;;;;;;;24.82;73.04;96938.89;620074;228;67379;-67
2023/08/26 05:32:54;;;;;;;;;;;;;;;24.81;72.82;96935.41;621025;228;66727;-67
2023/08/26 05:35:22;;;;;;;;;;;;;;;24.81;71.87;96931.93;620440;228;62683;-67
2023/08/26 05:37:50;;;;;;;;;;;;;;;24.81;72.45;96934.62;621478;228;67679;-68
2023/08/26 05:40:18;;;;;;;;;;;;;;;24.81;72.82;96929.24;621447;228;64464;-67
2023/08/26 05:42:46;;;;;;;;;;;;;;;24.81;72.00;96923.87;621491;228;65172;-67
2023/08/26 05:45:14;;;;;;;;;;;;;;;24.81;72.20;96921.18;620691;228;65020;-67
2023/08/26 05:47:42;;;;;;;;;;;;;;;24.80;72.53;96917.70;620646;228;67453;-67
2023/08/26 05:50:10;;;;;;;;;;;;;;;24.80;71.86;96922.28;619855;228;65100;-67
2023/08/26 05:52:38;;;;;;;;;;;;;;;24.80;71.63;96914.22;622191;227;67253;-67
2023/08/26 05:55:06;;;;;;;;;;;;;;;24.80;72.14;96917.70;621144;227;64479;-67
2023/08/26 05:57:33;;;;;;;;;;;;;;;24.79;71.37;96916.09;621584;228;65011;-67
2023/08/26 06:00:02;;;;;;;;;;;;;;;24.80;71.08;96912.33;621073;228;64302;-67
2023/08/26 06:02:30;;;;;;;;;;;;;;;24.80;70.83;96912.33;619598;228;50103;-67
2023/08/26 06:04:59;;;;;;;;;;;;;;;24.81;72.41;96915.80;620968;227;66113;-67
2023/08/26 06:07:26;;;;;;;;;;;;;;;24.80;70.68;96911.53;621502;228;67923;-67
2023/08/26 06:09:54;;;;;;;;;;;;;;;24.80;70.49;96916.91;621595;228;66848;-67
2023/08/26 06:12:21;;;;;;;;;;;;;;;24.81;70.91;96921.18;621557;228;62820;-67
2023/08/26 06:14:49;;;;;;;;;;;;;;;24.80;70.31;96922.28;621525;228;67115;-68
2023/08/26 06:17:17;;;;;;;;;;;;;;;24.80;69.17;96919.59;621472;228;67042;-67
2023/08/26 06:19:45;;;;;;;;;;;;;;;24.80;69.08;96915.02;621504;228;64885;-68
2023/08/26 06:22:13;;;;;;;;;;;;;;;24.81;69.16;96926.55;621525;228;67981;-67
2023/08/26 06:24:41;;;;;;;;;;;;;;;24.81;69.14;96929.24;621593;228;67038;-67
2023/08/26 06:27:09;;;;;;;;;;;;;;;24.83;69.43;96926.24;621525;227;63041;-67
2023/08/26 06:29:36;;;;;;;;;;;;;;;24.81;69.00;96930.03;621507;228;66995;-67
2023/08/26 06:32:04;;;;;;;;;;;;;;;24.81;68.83;96930.03;620752;228;65055;-67
2023/08/26 06:34:33;;;;;;;;;;;;;;;24.82;69.03;96925.45;620650;228;65087;-67
2023/08/26 06:37:02;;;;;;;;;;;;;;;24.82;68.51;96930.83;620052;228;67156;-67
2023/08/26 06:39:29;;;;;;;;;;;;;;;24.82;68.92;96938.89;620605;228;64860;-67
2023/08/26 06:41:57;;;;;;;;;;;;;;;24.82;68.49;96938.89;620940;228;65201;-67
2023/08/26 06:44:24;;;;;;;;;;;;;;;24.83;68.50;96935.13;619835;228;67124;-67
2023/08/26 06:46:52;;;;;;;;;;;;;;;24.84;68.50;96938.60;621557;228;64637;-67
2023/08/26 06:49:20;;;;;;;;;;;;;;;24.83;68.54;96936.99;620937;227;65027;-67
2023/08/26 06:51:47;;;;;;;;;;;;;;;24.83;68.60;96932.44;622168;227;67187;-67
2023/08/26 06:54:15;;;;;;;;;;;;;;;24.83;68.62;96940.50;620369;228;68060;-67
2023/08/26 06:56:44;;;;;;;;;;;;;;;24.84;68.66;96943.98;621514;228;65639;-67
2023/08/26 06:59:12;;;;;;;;;;;;;;;24.84;68.64;96939.39;619813;228;64912;-67
2023/08/26 07:01:39;;;;;;;;;;;;;;;24.83;68.66;96935.13;621016;228;65140;-67
2023/08/26 07:04:07;;;;;;;;;;;;;;;24.84;68.61;96927.86;622311;227;62832;-67
2023/08/26 07:06:36;;;;;;;;;;;;;;;24.85;68.58;96929.44;620631;228;67260;-67
2023/08/26 07:09:04;;;;;;;;;;;;;;;24.85;68.60;96934.81;621081;228;65625;-67
2023/08/26 07:11:32;;;;;;;;;;;;;;;24.84;68.64;96936.70;620703;228;64994;-67
2023/08/26 07:14:00;;;;;;;;;;;;;;;24.85;68.61;96927.54;620462;228;64600;-67
2023/08/26 07:16:28;;;;;;;;;;;;;;;24.85;68.61;96938.29;622668;227;65677;-67
2023/08/26 07:18:55;;;;;;;;;;;;;;;24.84;68.62;96939.39;620328;228;62731;-67
2023/08/26 07:21:23;;;;;;;;;;;;;;;24.84;68.59;96936.70;621304;228;64959;-67
2023/08/26 07:23:51;;;;;;;;;;;;;;;24.85;68.59;96943.66;620474;228;64786;-67
2023/08/26 07:26:18;;;;;;;;;;;;;;;24.84;68.56;96936.70;619485;228;65014;-67
2023/08/26 07:28:48;;;;;;;;;;;;;;;24.84;68.53;96944.77;620556;228;67088;-68
2023/08/26 07:31:15;;;;;;;;;;;;;;;24.86;68.74;96941.80;621190;228;64770;-68
2023/08/26 07:33:43;;;;;;;;;;;;;;;24.84;68.45;96944.77;620577;228;64930;-68
2023/08/26 07:36:10;;;;;;;;;;;;;;;24.85;68.35;96945.56;620582;228;67031;-68
2023/08/26 07:38:38;;;;;;;;;;;;;;;24.86;68.18;96936.42;622688;227;67037;-67
2023/08/26 07:41:06;;;;;;;;;;;;;;;24.86;68.15;96939.91;621571;228;63610;-68
2023/08/26 07:43:36;;;;;;;;;;;;;;;24.87;68.18;96938.80;621477;228;64859;-68
2023/08/26 07:46:03;;;;;;;;;;;;;;;24.89;68.20;96941.20;621635;227;64774;-68
2023/08/26 07:48:30;;;;;;;;;;;;;;;24.88;68.10;96929.66;621897;227;62714;-67
2023/08/26 07:50:58;;;;;;;;;;;;;;;24.90;68.01;96940.88;621514;228;64922;-67
2023/08/26 07:53:25;;;;;;;;;;;;;;;24.90;67.96;96932.03;620816;228;64804;-68
2023/08/26 07:55:53;;;;;;;;;;;;;;;24.89;67.94;96931.23;619524;228;64866;-68
2023/08/26 07:58:20;;;;;;;;;;;;;;;24.91;68.03;96929.05;621190;228;67050;-68
2023/08/26 08:00:48;;;;;;;;;;;;;;;24.91;67.83;96928.23;621552;228;64462;-67
2023/08/26 08:03:16;;;;;;;;;;;;;;;24.91;67.79;96923.68;621495;228;62935;-68
2023/08/26 08:05:44;;;;;;;;;;;;;;;24.91;67.90;96929.05;621407;228;67062;-67
2023/08/26 08:08:11;;;;;;;;;;;;;;;24.91;67.71;96918.30;619936;228;67214;-68
2023/08/26 08:10:39;;;;;;;;;;;;;;;24.92;67.64;96922.58;620700;228;63729;-68
2023/08/26 08:13:08;;;;;;;;;;;;;;;24.92;67.67;96919.89;621509;227;64810;-67
2023/08/26 08:15:36;;;;;;;;;;;;;;;24.94;67.58;96923.08;621480;227;67026;-67
2023/08/26 08:18:03;;;;;;;;;;;;;;;24.95;67.66;96923.88;620237;228;65148;-67
2023/08/26 08:20:31;;;;;;;;;;;;;;;24.93;67.57;96917.98;622132;227;67270;-68
2023/08/26 08:22:59;;;;;;;;;;;;;;;24.95;67.49;96921.97;621684;228;66867;-68
2023/08/26 08:25:26;;;;;;;;;;;;;;;24.96;67.49;96915.52;621511;228;63031;-68
2023/08/26 08:27:54;;;;;;;;;;;;;;;24.96;67.58;96914.70;621517;228;64609;-68
2023/08/26 08:30:22;;;;;;;;;;;;;;;24.96;67.52;96918.20;620093;228;67133;-67
2023/08/26 08:32:50;;;;;;;;;;;;;;;24.98;67.52;96917.89;620443;228;62714;-67
2023/08/26 08:35:18;;;;;;;;;;;;;;;24.98;68.40;96909.83;621221;228;64805;-68
2023/08/26 08:37:45;;;;;;;;;;;;;;;24.98;67.67;96909.83;621581;227;66879;-67
2023/08/26 08:40:13;;;;;;;;;;;;;;;24.97;68.03;96909.03;622253;227;65301;-67
2023/08/26 08:42:44;;;;;;;;;;;;;;;24.98;67.54;96907.93;620051;228;67189;-68
2023/08/26 08:45:12;;;;;;;;;;;;;;;24.99;67.54;96912.23;620829;228;64561;-68
2023/08/26 08:47:39;;;;;;;;;;;;;;;24.98;67.60;96907.93;616282;228;64953;-67
2023/08/26 08:50:08;;;;;;;;;;;;;;;24.99;67.46;96906.85;623107;227;67018;-68
2023/08/26 08:52:36;;;;;;;;;;;;;;;24.99;67.50;96903.34;620810;227;67047;-67
2023/08/26 08:55:05;;;;;;;;;;;;;;;25.00;67.53;96904.95;621521;228;62731;-68
2023/08/26 08:57:34;;;;;;;;;;;;;;;24.99;67.53;96912.23;621469;228;68033;-67
2023/08/26 09:00:03;;;;;;;;;;;;;;;25.00;67.45;96899.58;621521;228;67222;-67
2023/08/26 09:02:31;;;;;;;;;;;;;;;25.01;67.56;96898.47;621487;228;63804;-68
2023/08/26 09:04:59;;;;;;;;;;;;;;;25.00;67.44;96900.38;621498;228;67242;-68
2023/08/26 09:07:27;;;;;;;;;;;;;;;25.01;67.48;96901.95;621295;228;64947;-68
2023/08/26 09:10:01;;;;;;;;;;;;;;;25.01;67.35;96893.88;622541;227;64978;-67
2023/08/26 09:12:25;;;;;;;;;;;;;;;25.01;67.41;96901.95;619828;227;68006;-67
2023/08/26 09:14:53;;;;;;;;;;;;;;;25.01;67.39;96885.82;620900;228;66355;-67
2023/08/26 09:17:20;;;;;;;;;;;;;;;25.02;67.56;96883.95;621366;228;64941;-68
2023/08/26 09:19:52;;;;;;;;;;;;;;;25.02;67.73;96892.02;621827;227;64238;-68
2023/08/26 09:22:20;;;;;;;;;;;;;;;25.01;67.32;96885.82;621561;228;66845;-68
2023/08/26 09:24:48;;;;;;;;;;;;;;;25.01;67.02;96883.13;620034;228;62815;-68
2023/08/26 09:27:16;;;;;;;;;;;;;;;25.02;67.27;96882.05;621526;228;64480;-68
2023/08/26 09:29:44;;;;;;;;;;;;;;;25.01;66.83;96883.13;620375;228;66838;-68
2023/08/26 09:32:12;;;;;;;;;;;;;;;25.02;66.63;96882.05;621166;228;65117;-68
2023/08/26 09:34:39;;;;;;;;;;;;;;;25.02;66.56;96878.58;621943;227;64610;-68
2023/08/26 09:37:10;;;;;;;;;;;;;;;25.02;66.48;96876.67;621690;228;64810;-68
2023/08/26 09:39:47;;;;;;;;;;;;;;;25.03;66.40;96877.47;621499;227;64951;-68
2023/08/26 09:42:14;;;;;;;;;;;;;;;25.02;66.47;96873.98;622233;227;67010;-67
2023/08/26 09:44:42;;;;;;;;;;;;;;;25.02;66.88;96876.67;624229;226;63709;-68
2023/08/26 09:47:11;;;;;;;;;;;;;;;25.02;66.57;96865.92;621133;227;64991;-67
2023/08/26 09:49:39;;;;;;;;;;;;;;;25.03;66.58;96874.78;617707;228;65112;-67
2023/08/26 09:52:06;;;;;;;;;;;;;;;25.02;66.22;96865.92;621517;227;64578;-67
2023/08/26 09:54:35;;;;;;;;;;;;;;;25.04;66.18;96870.98;619506;228;62924;-67
2023/08/26 09:57:03;;;;;;;;;;;;;;;25.03;66.15;96864.81;620160;228;67269;-67
2023/08/26 09:59:30;;;;;;;;;;;;;;;25.04;66.10;96865.61;621509;228;67030;-67
2023/08/26 10:02:01;;;;;;;;;;;;;;;25.04;66.40;96865.61;621518;228;63831;-67
2023/08/26 10:04:29;;;;;;;;;;;;;;;25.05;66.12;96859.15;621727;227;64524;-67
2023/08/26 10:06:58;;;;;;;;;;;;;;;25.05;66.24;96863.73;621380;228;66622;-67
2023/08/26 10:09:27;;;;;;;;;;;;;;;25.03;66.05;96859.44;620440;228;63006;-67
2023/08/26 10:11:59;;;;;;;;;;;;;;;25.04;66.54;96857.54;621121;228;65046;-67
2023/08/26 10:14:28;;;;;;;;;;;;;;;25.05;66.47;96858.36;620545;228;66968;-67
2023/08/26 10:16:57;;;;;;;;;;;;;;;25.05;66.73;96858.36;620105;228;62680;-67
2023/08/26 10:19:25;;;;;;;;;;;;;;;25.05;67.05;96855.67;621171;228;66990;-67
2023/08/26 10:21:53;;;;;;;;;;;;;;;25.02;66.00;96855.17;620078;228;66858;-67
2023/08/26 10:24:21;;;;;;;;;;;;;;;25.05;65.92;96852.98;621449;228;64942;-67
2023/08/26 10:26:49;;;;;;;;;;;;;;;25.05;65.83;96848.39;622241;227;67269;-67
2023/08/26 10:29:17;;;;;;;;;;;;;;;25.05;65.89;96842.23;621617;228;66318;-67
2023/08/26 10:31:46;;;;;;;;;;;;;;;25.05;65.81;96842.23;621154;228;62717;-68
2023/08/26 10:34:14;;;;;;;;;;;;;;;25.05;65.76;96842.23;620402;228;66744;-67
2023/08/26 10:36:43;;;;;;;;;;;;;;;25.06;65.84;96846.50;620266;228;64551;-67
2023/08/26 10:39:15;;;;;;;;;;;;;;;25.06;65.67;96843.80;621119;228;62734;-67
2023/08/26 10:42:01;;;;;;;;;;;;;;;25.05;65.66;96840.33;620596;228;68909;-67
2023/08/26 10:44:33;;;;;;;;;;;;;;;25.06;65.66;96835.74;621346;228;64318;-66
2023/08/26 10:47:00;;;;;;;;;;;;;;;25.06;65.66;96835.74;621453;228;64947;-66
2023/08/26 10:49:31;;;;;;;;;;;;;;;25.05;65.64;96837.64;621895;227;66935;-66
2023/08/26 10:52:18;;;;;;;;;;;;;;;25.06;65.57;96844.59;621750;228;66821;-67
2023/08/26 10:54:46;;;;;;;;;;;;;;;25.06;65.80;96841.12;621391;227;62912;-66
2023/08/26 10:57:14;;;;;;;;;;;;;;;25.06;65.64;96830.36;622209;227;66609;-66
2023/08/26 10:59:42;;;;;;;;;;;;;;;25.06;65.58;96838.43;619831;227;66710;-66
2023/08/26 11:02:11;;;;;;;;;;;;;;;25.06;65.49;96833.05;620348;228;62643;-66
2023/08/26 11:04:43;;;;;;;;;;;;;;;25.06;65.41;96830.36;622209;227;67033;-66
2023/08/26 11:07:17;;;;;;;;;;;;;;;25.06;65.38;96833.05;621622;228;66753;-67
2023/08/26 11:09:46;;;;;;;;;;;;;;;25.06;65.30;96833.84;621513;228;62598;-67
2023/08/26 11:12:24;;;;;;;;;;;;;;;25.06;65.29;96833.84;621575;228;66813;-67
2023/08/26 11:14:52;;;;;;;;;;;;;;;25.07;65.31;96826.56;621352;228;65223;-67
2023/08/26 11:17:20;;;;;;;;;;;;;;;25.06;65.32;96828.47;619910;228;63075;-67
2023/08/26 11:19:48;;;;;;;;;;;;;;;25.06;65.29;96823.09;621530;228;66832;-68
2023/08/26 11:22:15;;;;;;;;;;;;;;;25.06;65.28;96817.71;621565;228;66632;-68
2023/08/26 11:24:49;;;;;;;;;;;;;;;25.07;65.24;96821.19;620097;228;65307;-67
2023/08/26 11:27:16;;;;;;;;;;;;;;;25.07;65.28;96810.44;621508;228;67754;-67
2023/08/26 11:29:44;;;;;;;;;;;;;;;25.06;65.61;96812.33;621615;228;66681;-68
2023/08/26 11:32:11;;;;;;;;;;;;;;;25.06;65.89;96809.64;621517;227;63789;-68
2023/08/26 11:34:39;;;;;;;;;;;;;;;25.07;65.58;96807.75;621511;228;65259;-68
2023/08/26 11:37:07;;;;;;;;;;;;;;;25.06;65.43;96803.48;621757;227;64491;-68
2023/08/26 11:39:35;;;;;;;;;;;;;;;25.06;65.49;96795.41;621879;227;65121;-68
2023/08/26 11:42:15;;;;;;;;;;;;;;;25.07;65.26;96802.37;621601;228;64426;-68
2023/08/26 11:44:45;;;;;;;;;;;;;;;25.06;65.23;96793.52;621544;228;66288;-68
2023/08/26 11:47:13;;;;;;;;;;;;;;;25.07;65.28;96789.72;621527;228;65797;-68
2023/08/26 11:49:41;;;;;;;;;;;;;;;25.07;65.78;96791.61;615815;228;66667;-67
2023/08/26 11:52:09;;;;;;;;;;;;;;;25.08;65.39;96790.53;621514;228;66792;-68
2023/08/26 11:54:36;;;;;;;;;;;;;;;25.07;65.28;96789.72;621507;228;62657;-68
2023/08/26 11:57:04;;;;;;;;;;;;;;;25.07;66.39;96787.02;621579;228;66705;-68
2023/08/26 11:59:38;;;;;;;;;;;;;;;25.08;68.73;96785.95;621499;228;66862;-68
2023/08/26 12:02:17;;;;;;;;;;;;;;;25.07;68.36;96786.23;621554;228;65199;-68
2023/08/26 12:04:44;;;;;;;;;;;;;;;25.06;68.51;96774.69;614532;228;66923;-68
2023/08/26 12:07:13;;;;;;;;;;;;;;;25.05;67.32;96777.70;621504;227;66798;-67
2023/08/26 12:09:40;;;;;;;;;;;;;;;25.05;67.20;96773.11;620444;228;65023;-67
2023/08/26 12:12:08;;;;;;;;;;;;;;;25.05;66.22;96775.02;621039;228;66612;-67
2023/08/26 12:14:36;;;;;;;;;;;;;;;25.04;66.08;96760.75;621908;227;66927;-67
2023/08/26 12:17:04;;;;;;;;;;;;;;;25.05;64.90;96759.67;621669;228;63631;-67
2023/08/26 12:19:32;;;;;;;;;;;;;;;25.06;64.67;96763.94;621603;227;67057;-67
2023/08/26 12:22:00;;;;;;;;;;;;;;;25.07;65.75;96767.41;620316;228;66847;-67
2023/08/26 12:24:27;;;;;;;;;;;;;;;25.07;64.53;96756.66;621786;227;65087;-66
2023/08/26 12:26:55;;;;;;;;;;;;;;;25.06;64.33;96758.56;621407;227;66721;-66
2023/08/26 12:29:23;;;;;;;;;;;;;;;25.06;64.41;96761.25;621485;228;66776;-66
2023/08/26 12:31:50;;;;;;;;;;;;;;;25.07;64.15;96760.14;621526;228;64899;-66
2023/08/26 12:34:18;;;;;;;;;;;;;;;25.07;64.34;96751.28;621569;228;67015;-66
2023/08/26 12:36:45;;;;;;;;;;;;;;;25.08;64.12;96745.61;621555;227;64578;-66
2023/08/26 12:39:13;;;;;;;;;;;;;;;25.07;64.00;96744.01;621530;228;63121;-66
2023/08/26 12:41:41;;;;;;;;;;;;;;;25.08;64.00;96739.45;621508;228;66848;-66
2023/08/26 12:44:09;;;;;;;;;;;;;;;25.08;64.09;96736.77;620049;228;64511;-68
2023/08/26 12:46:36;;;;;;;;;;;;;;;25.07;64.07;96746.70;621143;228;62839;-68
2023/08/26 12:49:04;;;;;;;;;;;;;;;25.08;64.93;96740.23;620208;227;64581;-68
2023/08/26 12:51:32;;;;;;;;;;;;;;;25.09;63.66;96738.34;621466;228;64355;-68
2023/08/26 12:53:59;;;;;;;;;;;;;;;25.09;64.96;96738.34;621547;228;63785;-68